createdAt,value
2022-08-22T00:01:15.017Z,100.00
2022-08-22T00:02:41.539Z,43.30
2022-08-22T00:02:53.534Z,69.04
2022-08-22T00:03:10.472Z,90.20
2022-08-22T00:03:11.735Z,97.97
2022-08-22T00:03:57.884Z,100.00
2022-08-22T00:06:37.246Z,100.00
2022-08-22T00:09:19.774Z,100.00
2022-08-22T00:11:54.385Z,100.00
2022-08-22T00:14:36.719Z,100.00
2022-08-22T00:17:16.820Z,100.00
2022-08-22T00:19:53.174Z,100.00
2022-08-22T00:22:27.674Z,100.00
2022-08-22T00:25:02.700Z,100.00
2022-08-22T00:27:45.006Z,100.00
2022-08-22T00:30:18.525Z,100.00
2022-08-22T00:32:52.169Z,100.00
2022-08-22T00:35:26.631Z,100.00
2022-08-22T00:38:03.878Z,100.00
2022-08-22T00:40:44.221Z,100.00
2022-08-22T00:43:47.977Z,100.00
2022-08-22T00:46:45.763Z,100.00
2022-08-22T00:49:30.425Z,100.00
2022-08-22T00:52:27.142Z,100.00
2022-08-22T00:55:19.053Z,100.00
2022-08-22T00:58:06.505Z,100.00
2022-08-22T01:00:43.328Z,100.00
2022-08-22T01:03:50.568Z,100.00
2022-08-22T01:06:25.877Z,100.00
2022-08-22T01:09:06.357Z,100.00
2022-08-22T01:11:51.395Z,100.00
2022-08-22T01:14:37.854Z,100.00
2022-08-22T01:17:28.758Z,100.00
2022-08-22T01:20:28.366Z,100.00
2022-08-22T01:23:34.382Z,100.00
2022-08-22T01:26:43.966Z,100.00
2022-08-22T01:29:37.591Z,100.00
2022-08-22T01:32:39.881Z,100.00
2022-08-22T01:35:58.124Z,100.00
2022-08-22T01:38:56.146Z,100.00
2022-08-22T01:41:59.601Z,100.00
2022-08-22T01:44:49.908Z,100.00
2022-08-22T01:47:22.601Z,100.00
2022-08-22T01:49:57.284Z,100.00
2022-08-22T01:52:39.094Z,100.00
2022-08-22T01:55:12.979Z,100.00
2022-08-22T01:57:54.617Z,100.00
2022-08-22T02:00:35.372Z,100.00
2022-08-22T02:03:20.783Z,100.00
2022-08-22T02:06:00.174Z,100.00
2022-08-22T02:08:39.835Z,100.00
2022-08-22T02:11:12.076Z,100.00
2022-08-22T02:13:56.163Z,100.00
2022-08-22T02:16:34.216Z,100.00
2022-08-22T02:19:13.121Z,100.00
2022-08-22T02:21:49.465Z,100.00
2022-08-22T02:24:26.813Z,100.00
2022-08-22T02:27:11.637Z,100.00
2022-08-22T02:29:48.024Z,100.00
2022-08-22T02:32:27.812Z,100.00
2022-08-22T02:35:04.529Z,100.00
2022-08-22T02:37:38.128Z,100.00
2022-08-22T02:40:19.224Z,100.00
2022-08-22T02:42:56.828Z,100.00
2022-08-22T02:45:38.740Z,100.00
2022-08-22T02:48:18.044Z,100.00
2022-08-22T02:50:53.221Z,100.00
2022-08-22T02:53:30.665Z,100.00
2022-08-22T02:56:05.500Z,100.00
2022-08-22T02:58:44.793Z,100.00
2022-08-22T03:01:25.043Z,100.00
2022-08-22T03:03:54.400Z,100.00
2022-08-22T03:06:37.786Z,100.00
2022-08-22T03:09:22.087Z,100.00
2022-08-22T03:12:06.228Z,100.00
2022-08-22T03:14:44.240Z,100.00
2022-08-22T03:17:21.186Z,100.00
2022-08-22T03:19:57.806Z,100.00
2022-08-22T03:22:36.964Z,100.00
2022-08-22T03:25:15.516Z,100.00
2022-08-22T03:27:53.637Z,100.00
2022-08-22T03:30:33.392Z,100.00
2022-08-22T03:33:18.034Z,100.00
2022-08-22T03:36:06.692Z,100.00
2022-08-22T03:38:53.213Z,100.00
2022-08-22T03:41:52.266Z,100.00
2022-08-22T03:44:59.791Z,100.00
2022-08-22T03:48:02.577Z,100.00
2022-08-22T03:51:02.313Z,100.00
2022-08-22T03:54:08.461Z,100.00
2022-08-22T03:57:11.014Z,100.00
2022-08-22T04:00:10.264Z,100.00
2022-08-22T04:03:10.287Z,100.00
2022-08-22T04:06:12.689Z,100.00
2022-08-22T04:09:22.806Z,100.00
2022-08-22T04:12:13.564Z,100.00
2022-08-22T04:15:21.715Z,100.00
2022-08-22T04:18:22.589Z,100.00
2022-08-22T04:21:43.806Z,100.00
2022-08-22T04:24:35.695Z,100.00
2022-08-22T04:27:09.960Z,100.00
2022-08-22T04:29:46.933Z,100.00
2022-08-22T04:32:23.490Z,100.00
2022-08-22T04:34:58.419Z,100.00
2022-08-22T04:37:36.769Z,100.00
2022-08-22T04:40:12.328Z,100.00
2022-08-22T04:42:45.904Z,100.00
2022-08-22T04:45:19.941Z,100.00
2022-08-22T04:47:55.655Z,100.00
2022-08-22T04:50:30.765Z,100.00
2022-08-22T04:53:12.620Z,100.00
2022-08-22T04:55:51.163Z,100.00
2022-08-22T04:58:35.554Z,100.00
2022-08-22T05:01:13.631Z,100.00
2022-08-22T05:03:48.432Z,100.00
2022-08-22T05:06:21.016Z,100.00
2022-08-22T05:08:53.937Z,100.00
2022-08-22T05:11:25.308Z,100.00
2022-08-22T05:13:58.777Z,100.00
2022-08-22T05:16:32.637Z,100.00
2022-08-22T05:19:04.512Z,100.00
2022-08-22T05:21:41.781Z,100.00
2022-08-22T05:24:13.261Z,100.00
2022-08-22T05:26:50.499Z,100.00
2022-08-22T05:29:24.531Z,100.00
2022-08-22T05:32:01.493Z,100.00
2022-08-22T05:34:35.537Z,100.00
2022-08-22T05:37:12.753Z,100.00
2022-08-22T05:39:47.277Z,100.00
2022-08-22T05:42:22.161Z,100.00
2022-08-22T05:44:51.292Z,100.00
2022-08-22T05:47:25.226Z,100.00
2022-08-22T05:50:02.299Z,100.00
2022-08-22T05:52:46.139Z,100.00
2022-08-22T05:55:26.524Z,100.00
2022-08-22T05:58:20.249Z,100.00
2022-08-22T06:00:53.929Z,100.00
2022-08-22T06:03:29.580Z,100.00
2022-08-22T06:06:00.971Z,100.00
2022-08-22T06:08:36.472Z,100.00
2022-08-22T06:11:12.878Z,100.00
2022-08-22T06:13:48.940Z,100.00
2022-08-22T06:16:26.295Z,100.00
2022-08-22T06:18:55.917Z,100.00
2022-08-22T06:21:37.641Z,100.00
2022-08-22T06:24:14.625Z,100.00
2022-08-22T06:26:49.738Z,100.00
2022-08-22T06:29:31.283Z,100.00
2022-08-22T06:32:03.820Z,100.00
2022-08-22T06:34:37.426Z,100.00
2022-08-22T06:37:11.252Z,100.00
2022-08-22T06:39:46.033Z,100.00
2022-08-22T06:42:17.957Z,100.00
2022-08-22T06:44:53.140Z,100.00
2022-08-22T06:47:26.645Z,100.00
2022-08-22T06:50:02.231Z,100.00
2022-08-22T06:52:36.201Z,100.00
2022-08-22T06:55:09.027Z,100.00
2022-08-22T06:57:44.372Z,100.00
2022-08-22T07:00:17.093Z,100.00
2022-08-22T07:02:50.375Z,100.00
2022-08-22T07:05:22.001Z,100.00
2022-08-22T07:07:54.115Z,100.00
2022-08-22T07:10:26.054Z,100.00
2022-08-22T07:13:00.602Z,100.00
2022-08-22T07:15:35.693Z,100.00
2022-08-22T07:18:09.190Z,100.00
2022-08-22T07:20:42.408Z,100.00
2022-08-22T07:23:15.661Z,100.00
2022-08-22T07:25:56.363Z,100.00
2022-08-22T07:28:51.449Z,100.00
2022-08-22T07:31:37.241Z,100.00
2022-08-22T07:34:40.465Z,100.00
2022-08-22T07:37:15.853Z,100.00
2022-08-22T07:39:52.035Z,100.00
2022-08-22T07:42:31.934Z,100.00
2022-08-22T07:45:07.712Z,100.00
2022-08-22T07:47:51.231Z,100.00
2022-08-22T07:50:26.946Z,100.00
2022-08-22T07:53:06.415Z,100.00
2022-08-22T07:55:41.052Z,100.00
2022-08-22T07:58:23.407Z,100.00
2022-08-22T08:00:54.423Z,100.00
2022-08-22T08:03:25.486Z,100.00
2022-08-22T08:05:55.296Z,99.68
2022-08-22T08:08:27.894Z,98.73
2022-08-22T08:10:59.207Z,97.89
2022-08-22T08:13:33.312Z,97.13
2022-08-22T08:16:02.675Z,95.62
2022-08-22T08:18:37.167Z,99.96
2022-08-22T08:21:08.547Z,97.42
2022-08-22T08:23:39.829Z,95.32
2022-08-22T08:26:12.799Z,90.80
2022-08-22T08:28:45.941Z,90.71
2022-08-22T08:31:25.802Z,90.03
2022-08-22T08:34:01.744Z,86.38
2022-08-22T08:36:38.950Z,84.16
2022-08-22T08:39:16.559Z,82.14
2022-08-22T08:42:17.339Z,81.25
2022-08-22T08:45:15.098Z,81.17
2022-08-22T08:48:09.416Z,80.65
2022-08-22T08:50:50.149Z,79.76
2022-08-22T08:54:06.085Z,80.76
2022-08-22T08:56:47.179Z,79.97
2022-08-22T08:59:29.168Z,77.89
2022-08-22T09:02:23.493Z,76.70
2022-08-22T09:05:37.843Z,75.23
2022-08-22T09:08:38.644Z,74.56
2022-08-22T09:11:34.206Z,73.28
2022-08-22T09:14:19.858Z,72.36
2022-08-22T09:17:06.877Z,72.46
2022-08-22T09:20:15.523Z,77.90
2022-08-22T09:23:14.347Z,77.67
2022-08-22T09:25:50.342Z,76.34
2022-08-22T09:28:28.303Z,72.81
2022-08-22T09:31:21.151Z,70.96
2022-08-22T09:34:14.469Z,67.06
2022-08-22T09:37:17.717Z,69.01
2022-08-22T09:39:59.209Z,66.76
2022-08-22T09:42:39.995Z,67.31
2022-08-22T09:45:50.046Z,65.28
2022-08-22T09:48:44.539Z,59.85
2022-08-22T09:51:32.477Z,62.58
2022-08-22T09:54:16.289Z,62.63
2022-08-22T09:57:00.007Z,62.15
2022-08-22T09:59:45.788Z,62.10
2022-08-22T10:02:30.123Z,60.20
2022-08-22T10:05:07.839Z,57.46
2022-08-22T10:08:05.988Z,56.36
2022-08-22T10:11:07.042Z,55.31
2022-08-22T10:13:57.239Z,59.29
2022-08-22T10:16:43.691Z,57.27
2022-08-22T10:19:19.777Z,55.36
2022-08-22T10:22:15.669Z,52.35
2022-08-22T10:24:49.255Z,53.67
2022-08-22T10:27:28.943Z,51.71
2022-08-22T10:30:08.357Z,51.98
2022-08-22T10:32:43.162Z,53.19
2022-08-22T10:35:22.555Z,53.58
2022-08-22T10:37:59.630Z,53.46
2022-08-22T10:40:34.015Z,50.51
2022-08-22T10:43:13.845Z,46.58
2022-08-22T10:45:47.366Z,48.20
2022-08-22T10:48:34.162Z,46.77
2022-08-22T10:51:17.112Z,46.31
2022-08-22T10:53:59.629Z,45.69
2022-08-22T10:56:34.623Z,46.28
2022-08-22T10:59:22.901Z,46.21
2022-08-22T11:02:12.775Z,46.77
2022-08-22T11:05:01.130Z,43.92
2022-08-22T11:07:50.062Z,43.87
2022-08-22T11:10:28.706Z,43.13
2022-08-22T11:13:12.597Z,46.59
2022-08-22T11:16:08.999Z,44.19
2022-08-22T11:19:03.023Z,44.50
2022-08-22T11:21:46.185Z,44.42
2022-08-22T11:24:46.563Z,44.41
2022-08-22T11:27:39.850Z,43.33
2022-08-22T11:30:18.575Z,43.03
2022-08-22T11:33:15.922Z,44.75
2022-08-22T11:35:54.113Z,45.64
2022-08-22T11:38:36.196Z,45.22
2022-08-22T11:41:14.083Z,44.52
2022-08-22T11:43:57.423Z,43.64
2022-08-22T11:46:31.210Z,44.59
2022-08-22T11:49:18.955Z,44.49
2022-08-22T11:52:18.170Z,43.23
2022-08-22T11:55:11.664Z,39.48
2022-08-22T11:57:44.788Z,39.05
2022-08-22T12:00:30.278Z,37.46
2022-08-22T12:03:43.136Z,35.30
2022-08-22T12:06:34.879Z,35.54
2022-08-22T12:09:29.879Z,37.95
2022-08-22T12:12:15.802Z,38.31
2022-08-22T12:14:51.161Z,37.08
2022-08-22T12:17:50.882Z,37.37
2022-08-22T12:20:47.821Z,36.78
2022-08-22T12:23:43.327Z,35.96
2022-08-22T12:26:28.678Z,35.02
2022-08-22T12:29:16.735Z,39.87
2022-08-22T12:32:16.676Z,39.24
2022-08-22T12:35:02.622Z,39.50
2022-08-22T12:37:52.812Z,37.00
2022-08-22T12:40:30.931Z,36.07
2022-08-22T12:43:39.959Z,34.50
2022-08-22T12:46:21.118Z,34.28
2022-08-22T12:49:08.137Z,33.46
2022-08-22T12:51:50.594Z,34.53
2022-08-22T12:54:48.048Z,32.95
2022-08-22T12:57:27.967Z,31.99
2022-08-22T13:00:03.933Z,31.91
2022-08-22T13:02:40.621Z,32.34
2022-08-22T13:05:19.980Z,33.66
2022-08-22T13:07:54.662Z,32.95
2022-08-22T13:10:42.226Z,33.13
2022-08-22T13:13:17.444Z,32.05
2022-08-22T13:16:04.649Z,31.92
2022-08-22T13:18:44.623Z,32.50
2022-08-22T13:21:20.651Z,32.31
2022-08-22T13:23:54.617Z,32.15
2022-08-22T13:26:33.983Z,33.27
2022-08-22T13:29:25.323Z,32.17
2022-08-22T13:31:59.456Z,31.92
2022-08-22T13:34:40.531Z,31.57
2022-08-22T13:37:16.808Z,31.75
2022-08-22T13:39:50.043Z,31.26
2022-08-22T13:42:30.470Z,30.74
2022-08-22T13:45:03.124Z,30.67
2022-08-22T13:47:39.654Z,30.75
2022-08-22T13:50:15.573Z,30.41
2022-08-22T13:52:54.949Z,30.15
2022-08-22T13:55:31.270Z,30.60
2022-08-22T13:58:07.557Z,30.88
2022-08-22T14:01:17.973Z,31.57
2022-08-22T14:03:51.253Z,31.60
2022-08-22T14:06:35.483Z,32.44
2022-08-22T14:09:31.299Z,32.95
2022-08-22T14:12:12.114Z,32.90
2022-08-22T14:14:46.001Z,32.85
2022-08-22T14:17:19.745Z,31.65
2022-08-22T14:19:58.907Z,32.26
2022-08-22T14:22:35.500Z,31.18
2022-08-22T14:25:10.246Z,30.63
2022-08-22T14:27:45.920Z,30.16
2022-08-22T14:30:18.900Z,30.47
2022-08-22T14:32:51.787Z,29.87
2022-08-22T14:35:35.024Z,29.63
2022-08-22T14:38:29.737Z,30.06
2022-08-22T14:41:03.487Z,31.03
2022-08-22T14:43:53.202Z,32.04
2022-08-22T14:46:26.882Z,31.79
2022-08-22T14:49:28.753Z,30.79
2022-08-22T14:52:06.175Z,31.52
2022-08-22T14:54:37.425Z,32.23
2022-08-22T14:57:10.853Z,32.97
2022-08-22T14:59:51.719Z,32.83
2022-08-22T15:02:27.911Z,33.21
2022-08-22T15:04:57.465Z,33.07
2022-08-22T15:07:29.805Z,32.67
2022-08-22T15:10:07.598Z,33.31
2022-08-22T15:12:46.949Z,33.74
2022-08-22T15:15:29.071Z,33.59
2022-08-22T15:17:57.843Z,33.70
2022-08-22T15:20:35.638Z,33.60
2022-08-22T15:23:09.701Z,33.16
2022-08-22T15:25:42.540Z,33.18
2022-08-22T15:28:20.868Z,33.29
2022-08-22T15:31:03.806Z,32.85
2022-08-22T15:33:34.696Z,32.38
2022-08-22T15:36:16.378Z,32.42
2022-08-22T15:38:48.155Z,32.63
2022-08-22T15:41:41.622Z,32.75
2022-08-22T15:44:31.131Z,32.55
2022-08-22T15:47:10.882Z,32.39
2022-08-22T15:49:53.383Z,32.41
2022-08-22T15:52:26.041Z,32.64
2022-08-22T15:55:23.925Z,32.60
2022-08-22T15:58:04.800Z,33.73
2022-08-22T16:00:43.441Z,33.59
2022-08-22T16:03:24.752Z,33.57
2022-08-22T16:05:55.780Z,33.94
2022-08-22T16:08:33.133Z,33.87
2022-08-22T16:11:27.559Z,33.58
2022-08-22T16:14:32.755Z,33.39
2022-08-22T16:17:05.731Z,33.48
2022-08-22T16:19:38.445Z,33.79
2022-08-22T16:22:15.205Z,34.22
2022-08-22T16:25:03.610Z,34.17
2022-08-22T16:27:35.414Z,34.52
2022-08-22T16:30:14.791Z,35.03
2022-08-22T16:32:57.466Z,34.37
2022-08-22T16:36:22.672Z,33.24
2022-08-22T16:38:53.957Z,32.12
2022-08-22T16:41:36.301Z,30.82
2022-08-22T16:44:34.304Z,31.11
2022-08-22T16:47:15.198Z,31.30
2022-08-22T16:50:02.281Z,31.24
2022-08-22T16:52:55.618Z,30.77
2022-08-22T16:55:48.260Z,32.00
2022-08-22T16:58:57.905Z,31.63
2022-08-22T17:01:42.016Z,31.35
2022-08-22T17:04:21.480Z,30.69
2022-08-22T17:07:11.846Z,29.90
2022-08-22T17:10:01.943Z,29.76
2022-08-22T17:12:46.941Z,28.96
2022-08-22T17:15:28.452Z,30.84
2022-08-22T17:18:15.371Z,31.93
2022-08-22T17:20:53.083Z,32.53
2022-08-22T17:23:36.220Z,33.48
2022-08-22T17:26:22.140Z,34.00
2022-08-22T17:29:08.239Z,33.85
2022-08-22T17:31:47.877Z,35.05
2022-08-22T17:34:30.399Z,35.17
2022-08-22T17:37:09.897Z,35.57
2022-08-22T17:40:08.041Z,35.51
2022-08-22T17:42:55.709Z,35.84
2022-08-22T17:45:34.876Z,36.24
2022-08-22T17:48:09.374Z,36.79
2022-08-22T17:50:44.475Z,36.78
2022-08-22T17:53:23.792Z,37.35
2022-08-22T17:56:20.499Z,37.54
2022-08-22T17:58:55.686Z,38.72
2022-08-22T18:01:40.882Z,39.15
2022-08-22T18:04:15.831Z,39.05
2022-08-22T18:06:49.513Z,39.08
2022-08-22T18:09:36.010Z,39.70
2022-08-22T18:12:16.179Z,40.52
2022-08-22T18:14:52.629Z,40.71
2022-08-22T18:17:29.567Z,41.22
2022-08-22T18:20:07.985Z,41.35
2022-08-22T18:22:45.806Z,41.74
2022-08-22T18:25:36.827Z,41.99
2022-08-22T18:28:14.613Z,42.27
2022-08-22T18:30:56.389Z,42.15
2022-08-22T18:33:35.222Z,42.83
2022-08-22T18:36:11.948Z,43.51
2022-08-22T18:38:51.281Z,43.48
2022-08-22T18:41:27.724Z,44.15
2022-08-22T18:43:59.460Z,44.41
2022-08-22T18:46:43.004Z,45.08
2022-08-22T18:49:34.743Z,45.25
2022-08-22T18:52:29.337Z,46.00
2022-08-22T18:55:16.815Z,45.97
2022-08-22T18:58:14.298Z,46.21
2022-08-22T19:01:02.259Z,46.98
2022-08-22T19:03:44.857Z,47.60
2022-08-22T19:06:38.296Z,47.55
2022-08-22T19:09:34.214Z,48.11
2022-08-22T19:12:13.142Z,48.17
2022-08-22T19:15:07.606Z,47.94
2022-08-22T19:17:58.743Z,48.33
2022-08-22T19:20:49.601Z,48.61
2022-08-22T19:23:49.477Z,48.65
2022-08-22T19:26:40.480Z,49.38
2022-08-22T19:29:49.990Z,50.07
2022-08-22T19:32:55.732Z,50.03
2022-08-22T19:35:28.209Z,50.42
2022-08-22T19:38:00.615Z,51.26
2022-08-22T19:41:04.878Z,51.28
2022-08-22T19:43:38.269Z,52.18
2022-08-22T19:46:11.278Z,52.73
2022-08-22T19:48:51.235Z,52.77
2022-08-22T19:51:30.640Z,52.46
2022-08-22T19:54:18.265Z,53.18
2022-08-22T19:57:06.661Z,54.07
2022-08-22T19:59:51.313Z,54.45
2022-08-22T20:02:35.419Z,55.23
2022-08-22T20:05:27.822Z,55.67
2022-08-22T20:08:25.499Z,56.21
2022-08-22T20:11:05.445Z,55.73
2022-08-22T20:13:37.100Z,55.15
2022-08-22T20:16:44.519Z,55.19
2022-08-22T20:19:31.114Z,55.03
2022-08-22T20:22:05.034Z,55.70
2022-08-22T20:24:40.520Z,55.66
2022-08-22T20:27:16.003Z,55.71
2022-08-22T20:29:51.378Z,56.06
2022-08-22T20:32:28.793Z,55.83
2022-08-22T20:35:05.936Z,56.31
2022-08-22T20:38:05.449Z,56.38
2022-08-22T20:40:55.324Z,58.35
2022-08-22T20:43:34.504Z,60.19
2022-08-22T20:46:17.990Z,60.00
2022-08-22T20:48:52.237Z,60.16
2022-08-22T20:51:26.339Z,60.67
2022-08-22T20:53:57.026Z,59.79
2022-08-22T20:56:53.961Z,58.65
2022-08-22T21:02:33.800Z,56.14
2022-08-22T21:08:06.698Z,58.08
2022-08-22T21:10:58.193Z,59.12
2022-08-22T21:13:30.237Z,60.45
2022-08-22T21:16:03.455Z,61.11
2022-08-22T21:18:37.659Z,61.83
2022-08-22T21:21:16.973Z,61.94
2022-08-22T21:23:49.255Z,61.20
2022-08-22T21:26:24.675Z,61.53
2022-08-22T21:29:02.450Z,61.41
2022-08-22T21:31:36.158Z,61.60
2022-08-22T21:34:06.839Z,61.67
2022-08-22T21:36:47.668Z,62.48
2022-08-22T21:39:26.077Z,62.59
2022-08-22T21:42:15.419Z,62.35
2022-08-22T21:44:57.784Z,62.79
2022-08-22T21:47:37.233Z,63.21
2022-08-22T21:50:26.781Z,63.61
2022-08-22T21:53:10.139Z,63.58
2022-08-22T21:55:43.761Z,63.96
2022-08-22T21:58:37.206Z,63.86
2022-08-22T22:01:29.700Z,64.33
2022-08-22T22:04:01.148Z,64.28
2022-08-22T22:06:32.494Z,64.19
2022-08-22T22:09:01.008Z,64.65
2022-08-22T22:11:38.175Z,64.80
2022-08-22T22:14:09.620Z,64.86
2022-08-22T22:16:41.085Z,64.65
2022-08-22T22:19:10.664Z,65.05
2022-08-22T22:21:42.355Z,65.53
2022-08-22T22:24:22.314Z,65.76
2022-08-22T22:26:51.020Z,65.52
2022-08-22T22:29:19.813Z,66.45
2022-08-22T22:31:50.358Z,66.83
2022-08-22T22:34:19.948Z,66.27
2022-08-22T22:36:58.688Z,67.14
2022-08-22T22:39:31.125Z,68.05
2022-08-22T22:42:00.309Z,67.60
2022-08-22T22:44:30.079Z,67.78
2022-08-22T22:47:04.980Z,68.23
2022-08-22T22:49:43.582Z,69.14
2022-08-22T22:52:14.977Z,69.41
2022-08-22T22:54:47.846Z,69.68
2022-08-22T22:57:25.323Z,69.68
2022-08-22T22:59:56.111Z,70.49
2022-08-22T23:02:27.539Z,70.38
2022-08-22T23:04:57.687Z,70.95
2022-08-22T23:07:28.654Z,71.52
2022-08-22T23:10:05.297Z,71.28
2022-08-22T23:12:39.843Z,71.03
2022-08-22T23:15:10.955Z,71.58
2022-08-22T23:17:44.619Z,72.06
2022-08-22T23:20:21.918Z,72.05
2022-08-22T23:22:51.978Z,72.75
2022-08-22T23:25:27.835Z,72.35
2022-08-22T23:27:58.794Z,72.32
2022-08-22T23:30:27.246Z,72.59
2022-08-22T23:32:57.215Z,73.07
2022-08-22T23:35:27.129Z,73.23
2022-08-22T23:37:58.771Z,73.99
2022-08-22T23:40:29.546Z,73.96
2022-08-22T23:42:59.525Z,74.11
2022-08-22T23:45:37.427Z,73.45
2022-08-22T23:48:07.325Z,73.89
2022-08-22T23:50:39.131Z,74.66
2022-08-22T23:53:10.609Z,74.65
2022-08-22T23:55:40.144Z,75.19
2022-08-22T23:58:10.244Z,75.89
